sensor_id;sensor_type;location;lat;lon;timestamp;temperature;humidity
33023;DHT22;19390;51.460;5.710;2023-03-01T00:00:41;-2.20;99.90
33023;DHT22;19390;51.460;5.710;2023-03-01T00:03:06;-2.20;99.90
33023;DHT22;19390;51.460;5.710;2023-03-01T00:05:32;-2.20;99.90
33023;DHT22;19390;51.460;5.710;2023-03-01T00:07:58;-2.30;99.90
33023;DHT22;19390;51.460;5.710;2023-03-01T00:10:24;-2.50;99.90
33023;DHT22;19390;51.460;5.710;2023-03-01T00:12:51;-2.50;1.00
33023;DHT22;19390;51.460;5.710;2023-03-01T00:15:17;-2.60;1.00
33023;DHT22;19390;51.460;5.710;2023-03-01T00:17:42;-2.70;82.20
33023;DHT22;19390;51.460;5.710;2023-03-01T00:20:08;-2.80;99.90
33023;DHT22;19390;51.460;5.710;2023-03-01T00:22:36;-2.90;99.90
33023;DHT22;19390;51.460;5.710;2023-03-01T00:25:02;-2.90;1.00
33023;DHT22;19390;51.460;5.710;2023-03-01T00:27:27;-2.90;1.00
33023;DHT22;19390;51.460;5.710;2023-03-01T00:29:53;-3.00;1.00
33023;DHT22;19390;51.460;5.710;2023-03-01T00:32:19;-2.80;1.00
33023;DHT22;19390;51.460;5.710;2023-03-01T00:34:45;-2.90;1.00
33023;DHT22;19390;51.460;5.710;2023-03-01T00:37:20;-2.90;1.00
33023;DHT22;19390;51.460;5.710;2023-03-01T00:39:46;-2.80;1.00
33023;DHT22;19390;51.460;5.710;2023-03-01T00:42:12;-2.70;1.00
33023;DHT22;19390;51.460;5.710;2023-03-01T00:44:37;-2.70;1.00
33023;DHT22;19390;51.460;5.710;2023-03-01T00:47:03;-2.70;1.00
33023;DHT22;19390;51.460;5.710;2023-03-01T00:49:29;-2.60;1.00
33023;DHT22;19390;51.460;5.710;2023-03-01T00:51:55;-2.50;1.00
33023;DHT22;19390;51.460;5.710;2023-03-01T00:54:20;-2.60;1.00
33023;DHT22;19390;51.460;5.710;2023-03-01T00:56:46;-2.60;1.00
33023;DHT22;19390;51.460;5.710;2023-03-01T00:59:12;-2.70;1.00
33023;DHT22;19390;51.460;5.710;2023-03-01T01:01:37;-2.60;1.00
33023;DHT22;19390;51.460;5.710;2023-03-01T01:04:12;-2.70;1.00
33023;DHT22;19390;51.460;5.710;2023-03-01T01:06:43;-2.70;1.00
33023;DHT22;19390;51.460;5.710;2023-03-01T01:09:14;-2.70;1.00
33023;DHT22;19390;51.460;5.710;2023-03-01T01:11:45;-2.90;1.00
33023;DHT22;19390;51.460;5.710;2023-03-01T01:14:12;-3.00;1.00
33023;DHT22;19390;51.460;5.710;2023-03-01T01:16:37;-3.00;1.00
33023;DHT22;19390;51.460;5.710;2023-03-01T01:19:03;-2.90;1.00
33023;DHT22;19390;51.460;5.710;2023-03-01T01:21:29;-2.90;1.00
33023;DHT22;19390;51.460;5.710;2023-03-01T01:23:55;-2.90;1.00
33023;DHT22;19390;51.460;5.710;2023-03-01T01:26:25;-2.90;1.00
33023;DHT22;19390;51.460;5.710;2023-03-01T01:28:53;-2.60;1.00
33023;DHT22;19390;51.460;5.710;2023-03-01T01:31:19;-2.60;1.00
33023;DHT22;19390;51.460;5.710;2023-03-01T01:33:46;-2.50;1.00
33023;DHT22;19390;51.460;5.710;2023-03-01T01:36:11;-2.60;1.00
33023;DHT22;19390;51.460;5.710;2023-03-01T01:38:38;-2.60;1.00
33023;DHT22;19390;51.460;5.710;2023-03-01T01:41:05;-2.60;1.00
33023;DHT22;19390;51.460;5.710;2023-03-01T01:43:35;-2.60;1.00
33023;DHT22;19390;51.460;5.710;2023-03-01T01:46:04;-2.50;1.00
33023;DHT22;19390;51.460;5.710;2023-03-01T01:48:45;-2.50;1.00
33023;DHT22;19390;51.460;5.710;2023-03-01T01:51:15;-2.60;1.00
33023;DHT22;19390;51.460;5.710;2023-03-01T01:53:43;-2.70;1.00
33023;DHT22;19390;51.460;5.710;2023-03-01T01:56:11;-2.80;1.00
33023;DHT22;19390;51.460;5.710;2023-03-01T01:58:38;-2.50;1.00
33023;DHT22;19390;51.460;5.710;2023-03-01T02:01:05;-2.60;1.00
33023;DHT22;19390;51.460;5.710;2023-03-01T02:03:32;-2.70;1.00
33023;DHT22;19390;51.460;5.710;2023-03-01T02:08:39;-2.70;1.00
33023;DHT22;19390;51.460;5.710;2023-03-01T02:11:07;-2.80;1.00
33023;DHT22;19390;51.460;5.710;2023-03-01T02:13:34;-2.80;1.00
33023;DHT22;19390;51.460;5.710;2023-03-01T02:16:09;-2.90;1.00
33023;DHT22;19390;51.460;5.710;2023-03-01T02:18:35;-3.00;1.00
33023;DHT22;19390;51.460;5.710;2023-03-01T02:23:27;-2.90;1.00
33023;DHT22;19390;51.460;5.710;2023-03-01T02:28:37;-3.10;1.00
33023;DHT22;19390;51.460;5.710;2023-03-01T02:31:09;-2.90;1.00
33023;DHT22;19390;51.460;5.710;2023-03-01T02:33:54;-2.70;1.00
33023;DHT22;19390;51.460;5.710;2023-03-01T02:36:40;-2.80;1.00
33023;DHT22;19390;51.460;5.710;2023-03-01T02:39:10;-2.80;1.00
33023;DHT22;19390;51.460;5.710;2023-03-01T02:41:42;-2.80;1.00
33023;DHT22;19390;51.460;5.710;2023-03-01T02:44:08;-2.80;1.00
33023;DHT22;19390;51.460;5.710;2023-03-01T02:46:43;-2.80;1.00
33023;DHT22;19390;51.460;5.710;2023-03-01T02:49:25;-2.90;1.00
33023;DHT22;19390;51.460;5.710;2023-03-01T02:55:01;-2.70;1.00
33023;DHT22;19390;51.460;5.710;2023-03-01T02:57:29;-2.80;1.00
33023;DHT22;19390;51.460;5.710;2023-03-01T02:59:57;-2.70;1.00
33023;DHT22;19390;51.460;5.710;2023-03-01T03:02:30;-2.70;1.00
33023;DHT22;19390;51.460;5.710;2023-03-01T03:05:07;-2.80;1.00
33023;DHT22;19390;51.460;5.710;2023-03-01T03:07:37;-2.80;1.00
33023;DHT22;19390;51.460;5.710;2023-03-01T03:10:04;-2.90;1.00
33023;DHT22;19390;51.460;5.710;2023-03-01T03:12:30;-2.80;1.00
33023;DHT22;19390;51.460;5.710;2023-03-01T03:14:56;-2.90;1.00
33023;DHT22;19390;51.460;5.710;2023-03-01T03:17:21;-2.90;1.00
33023;DHT22;19390;51.460;5.710;2023-03-01T03:19:47;-2.90;1.00
33023;DHT22;19390;51.460;5.710;2023-03-01T03:22:13;-2.90;1.00
33023;DHT22;19390;51.460;5.710;2023-03-01T03:24:38;-2.90;1.00
33023;DHT22;19390;51.460;5.710;2023-03-01T03:27:05;-3.00;1.00
33023;DHT22;19390;51.460;5.710;2023-03-01T03:29:31;-3.10;1.00
33023;DHT22;19390;51.460;5.710;2023-03-01T03:31:58;-2.90;51.20
33023;DHT22;19390;51.460;5.710;2023-03-01T03:34:24;-3.00;55.50
33023;DHT22;19390;51.460;5.710;2023-03-01T03:36:54;-3.10;51.70
33023;DHT22;19390;51.460;5.710;2023-03-01T03:39:25;-3.10;92.30
33023;DHT22;19390;51.460;5.710;2023-03-01T03:41:53;-3.20;99.90
33023;DHT22;19390;51.460;5.710;2023-03-01T03:44:19;-3.20;99.90
33023;DHT22;19390;51.460;5.710;2023-03-01T03:46:45;-3.30;99.90
33023;DHT22;19390;51.460;5.710;2023-03-01T03:49:11;-3.30;99.90
33023;DHT22;19390;51.460;5.710;2023-03-01T03:51:37;-3.30;99.90
33023;DHT22;19390;51.460;5.710;2023-03-01T03:54:03;-3.20;99.90
33023;DHT22;19390;51.460;5.710;2023-03-01T03:56:28;-3.20;99.90
33023;DHT22;19390;51.460;5.710;2023-03-01T03:58:54;-3.20;99.90
33023;DHT22;19390;51.460;5.710;2023-03-01T04:01:20;-3.40;99.90
33023;DHT22;19390;51.460;5.710;2023-03-01T04:03:45;-3.30;99.90
33023;DHT22;19390;51.460;5.710;2023-03-01T04:06:14;-3.30;99.90
33023;DHT22;19390;51.460;5.710;2023-03-01T04:08:40;-3.30;99.90
33023;DHT22;19390;51.460;5.710;2023-03-01T04:11:06;-3.20;99.90
33023;DHT22;19390;51.460;5.710;2023-03-01T04:13:52;-3.20;99.90
33023;DHT22;19390;51.460;5.710;2023-03-01T04:16:18;-3.30;99.90
33023;DHT22;19390;51.460;5.710;2023-03-01T04:18:44;-3.50;99.90
33023;DHT22;19390;51.460;5.710;2023-03-01T04:21:10;-3.10;99.90
33023;DHT22;19390;51.460;5.710;2023-03-01T04:23:36;-3.30;99.90
33023;DHT22;19390;51.460;5.710;2023-03-01T04:26:03;-3.40;99.90
33023;DHT22;19390;51.460;5.710;2023-03-01T04:28:39;-3.30;99.90
33023;DHT22;19390;51.460;5.710;2023-03-01T04:31:17;-3.40;99.90
33023;DHT22;19390;51.460;5.710;2023-03-01T04:33:53;-3.40;99.90
33023;DHT22;19390;51.460;5.710;2023-03-01T04:36:22;-3.60;99.90
33023;DHT22;19390;51.460;5.710;2023-03-01T04:38:48;-3.40;99.90
33023;DHT22;19390;51.460;5.710;2023-03-01T04:41:16;-3.40;99.90
33023;DHT22;19390;51.460;5.710;2023-03-01T04:43:42;-3.40;99.90
33023;DHT22;19390;51.460;5.710;2023-03-01T04:46:10;-3.40;99.90
33023;DHT22;19390;51.460;5.710;2023-03-01T04:48:37;-3.40;99.90
33023;DHT22;19390;51.460;5.710;2023-03-01T04:51:03;-3.30;99.90
33023;DHT22;19390;51.460;5.710;2023-03-01T04:53:30;-3.40;99.90
33023;DHT22;19390;51.460;5.710;2023-03-01T04:55:56;-3.50;99.90
33023;DHT22;19390;51.460;5.710;2023-03-01T04:58:26;-3.50;99.90
33023;DHT22;19390;51.460;5.710;2023-03-01T05:00:53;-3.30;99.90
33023;DHT22;19390;51.460;5.710;2023-03-01T05:03:19;-3.30;99.90
33023;DHT22;19390;51.460;5.710;2023-03-01T05:05:46;-3.40;99.90
33023;DHT22;19390;51.460;5.710;2023-03-01T05:08:13;-3.40;99.90
33023;DHT22;19390;51.460;5.710;2023-03-01T05:10:51;-3.50;99.90
33023;DHT22;19390;51.460;5.710;2023-03-01T05:13:17;-3.50;99.90
33023;DHT22;19390;51.460;5.710;2023-03-01T05:15:57;-3.40;99.90
33023;DHT22;19390;51.460;5.710;2023-03-01T05:18:24;-3.50;99.90
33023;DHT22;19390;51.460;5.710;2023-03-01T05:21:02;-3.60;99.90
33023;DHT22;19390;51.460;5.710;2023-03-01T05:23:29;-3.70;99.90
33023;DHT22;19390;51.460;5.710;2023-03-01T05:25:58;-3.90;99.90
33023;DHT22;19390;51.460;5.710;2023-03-01T05:28:25;-3.90;99.90
33023;DHT22;19390;51.460;5.710;2023-03-01T05:30:51;-3.90;99.90
33023;DHT22;19390;51.460;5.710;2023-03-01T05:33:17;-4.00;99.90
33023;DHT22;19390;51.460;5.710;2023-03-01T05:35:44;-3.90;99.90
33023;DHT22;19390;51.460;5.710;2023-03-01T05:38:12;-4.00;99.90
33023;DHT22;19390;51.460;5.710;2023-03-01T05:40:39;-3.80;99.90
33023;DHT22;19390;51.460;5.710;2023-03-01T05:43:05;-3.90;99.90
33023;DHT22;19390;51.460;5.710;2023-03-01T05:45:32;-4.00;99.90
33023;DHT22;19390;51.460;5.710;2023-03-01T05:47:58;-4.00;99.90
33023;DHT22;19390;51.460;5.710;2023-03-01T05:50:29;-4.00;99.90
33023;DHT22;19390;51.460;5.710;2023-03-01T05:53:04;-4.00;99.90
33023;DHT22;19390;51.460;5.710;2023-03-01T05:55:34;-4.00;99.90
33023;DHT22;19390;51.460;5.710;2023-03-01T05:58:05;-4.10;99.90
33023;DHT22;19390;51.460;5.710;2023-03-01T06:00:31;-4.30;99.90
33023;DHT22;19390;51.460;5.710;2023-03-01T06:02:58;-4.40;99.90
33023;DHT22;19390;51.460;5.710;2023-03-01T06:05:24;-4.40;99.90
33023;DHT22;19390;51.460;5.710;2023-03-01T06:07:51;-4.30;99.90
33023;DHT22;19390;51.460;5.710;2023-03-01T06:10:20;-4.40;99.90
33023;DHT22;19390;51.460;5.710;2023-03-01T06:12:47;-4.50;99.90
33023;DHT22;19390;51.460;5.710;2023-03-01T06:15:15;-4.60;99.90
33023;DHT22;19390;51.460;5.710;2023-03-01T06:17:43;-4.60;99.90
33023;DHT22;19390;51.460;5.710;2023-03-01T06:22:38;-4.70;99.90
33023;DHT22;19390;51.460;5.710;2023-03-01T06:25:05;-4.70;99.90
33023;DHT22;19390;51.460;5.710;2023-03-01T06:27:31;-4.40;99.90
33023;DHT22;19390;51.460;5.710;2023-03-01T06:29:56;-4.50;99.90
33023;DHT22;19390;51.460;5.710;2023-03-01T06:32:22;-4.40;99.90
33023;DHT22;19390;51.460;5.710;2023-03-01T06:34:49;-4.30;99.90
33023;DHT22;19390;51.460;5.710;2023-03-01T06:37:14;-4.40;99.90
33023;DHT22;19390;51.460;5.710;2023-03-01T06:39:40;-4.50;99.90
33023;DHT22;19390;51.460;5.710;2023-03-01T06:42:10;-4.30;99.90
33023;DHT22;19390;51.460;5.710;2023-03-01T06:44:36;-4.00;99.90
33023;DHT22;19390;51.460;5.710;2023-03-01T06:47:02;-3.00;99.90
33023;DHT22;19390;51.460;5.710;2023-03-01T06:49:28;-2.90;99.90
33023;DHT22;19390;51.460;5.710;2023-03-01T06:51:54;-3.00;99.90
33023;DHT22;19390;51.460;5.710;2023-03-01T06:54:20;-2.40;99.90
33023;DHT22;19390;51.460;5.710;2023-03-01T06:56:48;-1.70;99.90
33023;DHT22;19390;51.460;5.710;2023-03-01T06:59:14;-1.80;99.90
33023;DHT22;19390;51.460;5.710;2023-03-01T07:01:39;-1.70;99.90
33023;DHT22;19390;51.460;5.710;2023-03-01T07:04:05;-1.20;99.90
33023;DHT22;19390;51.460;5.710;2023-03-01T07:06:31;-1.20;99.90
33023;DHT22;19390;51.460;5.710;2023-03-01T07:08:57;-0.20;99.90
33023;DHT22;19390;51.460;5.710;2023-03-01T07:11:23;0.00;99.90
33023;DHT22;19390;51.460;5.710;2023-03-01T07:13:48;0.50;99.90
33023;DHT22;19390;51.460;5.710;2023-03-01T07:16:14;2.80;1.00
33023;DHT22;19390;51.460;5.710;2023-03-01T07:18:40;3.80;1.00
33023;DHT22;19390;51.460;5.710;2023-03-01T07:21:07;5.20;1.00
33023;DHT22;19390;51.460;5.710;2023-03-01T07:23:33;6.20;99.90
33023;DHT22;19390;51.460;5.710;2023-03-01T07:25:59;7.40;1.00
33023;DHT22;19390;51.460;5.710;2023-03-01T07:28:26;7.50;1.00
33023;DHT22;19390;51.460;5.710;2023-03-01T07:30:52;8.10;1.00
33023;DHT22;19390;51.460;5.710;2023-03-01T07:33:18;8.40;99.90
33023;DHT22;19390;51.460;5.710;2023-03-01T07:35:44;7.90;99.90
33023;DHT22;19390;51.460;5.710;2023-03-01T07:38:10;8.30;99.90
33023;DHT22;19390;51.460;5.710;2023-03-01T07:40:36;8.70;99.90
33023;DHT22;19390;51.460;5.710;2023-03-01T07:43:01;9.10;99.90
33023;DHT22;19390;51.460;5.710;2023-03-01T07:45:28;9.10;99.90
33023;DHT22;19390;51.460;5.710;2023-03-01T07:47:54;9.40;99.90
33023;DHT22;19390;51.460;5.710;2023-03-01T07:50:21;9.80;99.90
33023;DHT22;19390;51.460;5.710;2023-03-01T07:52:48;8.70;99.90
33023;DHT22;19390;51.460;5.710;2023-03-01T07:55:14;8.70;99.90
33023;DHT22;19390;51.460;5.710;2023-03-01T07:57:40;10.50;99.90
33023;DHT22;19390;51.460;5.710;2023-03-01T08:00:07;10.50;99.90
33023;DHT22;19390;51.460;5.710;2023-03-01T08:02:34;10.40;99.90
33023;DHT22;19390;51.460;5.710;2023-03-01T08:04:59;10.50;99.90
33023;DHT22;19390;51.460;5.710;2023-03-01T08:07:25;10.70;99.90
33023;DHT22;19390;51.460;5.710;2023-03-01T08:09:51;9.20;99.90
33023;DHT22;19390;51.460;5.710;2023-03-01T08:12:17;9.70;99.90
33023;DHT22;19390;51.460;5.710;2023-03-01T08:14:43;10.70;99.90
33023;DHT22;19390;51.460;5.710;2023-03-01T08:17:09;11.00;99.90
33023;DHT22;19390;51.460;5.710;2023-03-01T08:19:34;12.20;99.90
33023;DHT22;19390;51.460;5.710;2023-03-01T08:22:03;12.50;99.90
33023;DHT22;19390;51.460;5.710;2023-03-01T08:24:29;11.50;99.90
33023;DHT22;19390;51.460;5.710;2023-03-01T08:26:55;9.90;99.90
33023;DHT22;19390;51.460;5.710;2023-03-01T08:29:22;12.60;99.90
33023;DHT22;19390;51.460;5.710;2023-03-01T08:31:50;13.80;99.90
33023;DHT22;19390;51.460;5.710;2023-03-01T08:34:17;13.90;99.90
33023;DHT22;19390;51.460;5.710;2023-03-01T08:36:45;13.40;99.90
33023;DHT22;19390;51.460;5.710;2023-03-01T08:39:14;15.30;99.90
33023;DHT22;19390;51.460;5.710;2023-03-01T08:41:40;16.70;99.90
33023;DHT22;19390;51.460;5.710;2023-03-01T08:44:06;14.70;99.90
33023;DHT22;19390;51.460;5.710;2023-03-01T08:46:35;13.50;99.90
33023;DHT22;19390;51.460;5.710;2023-03-01T08:49:04;14.40;99.90
33023;DHT22;19390;51.460;5.710;2023-03-01T08:51:30;13.10;99.90
33023;DHT22;19390;51.460;5.710;2023-03-01T08:53:57;14.00;99.90
33023;DHT22;19390;51.460;5.710;2023-03-01T08:56:23;14.20;99.90
33023;DHT22;19390;51.460;5.710;2023-03-01T08:58:50;14.30;99.90
33023;DHT22;19390;51.460;5.710;2023-03-01T09:01:18;14.40;99.90
33023;DHT22;19390;51.460;5.710;2023-03-01T09:03:45;16.10;99.90
33023;DHT22;19390;51.460;5.710;2023-03-01T09:06:11;15.30;99.90
33023;DHT22;19390;51.460;5.710;2023-03-01T09:08:39;15.60;99.90
33023;DHT22;19390;51.460;5.710;2023-03-01T09:11:07;14.50;99.90
33023;DHT22;19390;51.460;5.710;2023-03-01T09:13:34;13.70;99.90
33023;DHT22;19390;51.460;5.710;2023-03-01T09:16:01;14.10;99.90
33023;DHT22;19390;51.460;5.710;2023-03-01T09:18:27;12.40;99.90
33023;DHT22;19390;51.460;5.710;2023-03-01T09:20:53;13.00;99.90
33023;DHT22;19390;51.460;5.710;2023-03-01T09:23:20;10.90;99.90
33023;DHT22;19390;51.460;5.710;2023-03-01T09:25:46;12.00;99.90
33023;DHT22;19390;51.460;5.710;2023-03-01T09:28:12;12.50;99.90
33023;DHT22;19390;51.460;5.710;2023-03-01T09:30:38;12.00;99.90
33023;DHT22;19390;51.460;5.710;2023-03-01T09:33:04;12.50;99.90
33023;DHT22;19390;51.460;5.710;2023-03-01T09:35:30;11.30;99.90
33023;DHT22;19390;51.460;5.710;2023-03-01T09:37:55;10.70;99.90
33023;DHT22;19390;51.460;5.710;2023-03-01T09:40:24;8.20;99.90
33023;DHT22;19390;51.460;5.710;2023-03-01T09:43:04;5.70;99.90
33023;DHT22;19390;51.460;5.710;2023-03-01T09:45:35;5.30;99.90
33023;DHT22;19390;51.460;5.710;2023-03-01T09:48:02;4.70;99.90
33023;DHT22;19390;51.460;5.710;2023-03-01T09:50:35;4.60;99.90
33023;DHT22;19390;51.460;5.710;2023-03-01T09:53:09;6.30;99.90
33023;DHT22;19390;51.460;5.710;2023-03-01T10:00:56;10.20;99.90
33023;DHT22;19390;51.460;5.710;2023-03-01T10:03:34;12.60;99.90
33023;DHT22;19390;51.460;5.710;2023-03-01T10:06:06;10.40;99.90
33023;DHT22;19390;51.460;5.710;2023-03-01T10:08:56;12.40;99.90
33023;DHT22;19390;51.460;5.710;2023-03-01T10:11:26;11.70;99.90
33023;DHT22;19390;51.460;5.710;2023-03-01T10:19:24;10.40;99.90
33023;DHT22;19390;51.460;5.710;2023-03-01T10:21:53;10.10;99.90
33023;DHT22;19390;51.460;5.710;2023-03-01T10:24:19;9.60;99.90
33023;DHT22;19390;51.460;5.710;2023-03-01T10:26:58;8.90;99.90
33023;DHT22;19390;51.460;5.710;2023-03-01T10:30:13;10.00;99.90
33023;DHT22;19390;51.460;5.710;2023-03-01T10:32:42;10.30;99.90
33023;DHT22;19390;51.460;5.710;2023-03-01T10:35:26;10.90;99.90
33023;DHT22;19390;51.460;5.710;2023-03-01T10:38:11;11.20;99.90
33023;DHT22;19390;51.460;5.710;2023-03-01T10:40:52;10.40;99.90
33023;DHT22;19390;51.460;5.710;2023-03-01T10:43:19;10.50;99.90
33023;DHT22;19390;51.460;5.710;2023-03-01T10:45:45;10.30;99.90
33023;DHT22;19390;51.460;5.710;2023-03-01T10:50:45;13.10;99.90
33023;DHT22;19390;51.460;5.710;2023-03-01T10:53:24;10.20;99.90
33023;DHT22;19390;51.460;5.710;2023-03-01T10:56:04;11.10;99.90
33023;DHT22;19390;51.460;5.710;2023-03-01T10:58:31;12.60;99.90
33023;DHT22;19390;51.460;5.710;2023-03-01T11:01:05;11.00;99.90
33023;DHT22;19390;51.460;5.710;2023-03-01T11:03:35;10.40;99.90
33023;DHT22;19390;51.460;5.710;2023-03-01T11:08:44;9.50;99.90
33023;DHT22;19390;51.460;5.710;2023-03-01T11:16:43;10.20;99.90
33023;DHT22;19390;51.460;5.710;2023-03-01T11:21:58;10.40;99.90
33023;DHT22;19390;51.460;5.710;2023-03-01T11:27:24;10.40;99.90
33023;DHT22;19390;51.460;5.710;2023-03-01T11:30:05;12.30;99.90
33023;DHT22;19390;51.460;5.710;2023-03-01T11:32:45;11.90;99.90
33023;DHT22;19390;51.460;5.710;2023-03-01T11:35:19;12.30;99.90
33023;DHT22;19390;51.460;5.710;2023-03-01T11:38:21;13.70;99.90
33023;DHT22;19390;51.460;5.710;2023-03-01T11:40:55;12.40;99.90
33023;DHT22;19390;51.460;5.710;2023-03-01T12:05:24;12.40;99.90
33023;DHT22;19390;51.460;5.710;2023-03-01T12:11:16;11.90;99.90
33023;DHT22;19390;51.460;5.710;2023-03-01T12:27:00;14.50;99.90
33023;DHT22;19390;51.460;5.710;2023-03-01T12:32:17;14.30;99.90
33023;DHT22;19390;51.460;5.710;2023-03-01T12:35:00;12.00;99.90
33023;DHT22;19390;51.460;5.710;2023-03-01T12:37:54;13.80;99.90
33023;DHT22;19390;51.460;5.710;2023-03-01T12:46:46;11.70;99.90
33023;DHT22;19390;51.460;5.710;2023-03-01T12:49:20;11.00;99.90
33023;DHT22;19390;51.460;5.710;2023-03-01T12:54:36;14.20;99.90
33023;DHT22;19390;51.460;5.710;2023-03-01T12:57:17;14.40;99.90
33023;DHT22;19390;51.460;5.710;2023-03-01T13:00:30;14.20;99.90
33023;DHT22;19390;51.460;5.710;2023-03-01T13:08:27;15.10;99.90
33023;DHT22;19390;51.460;5.710;2023-03-01T13:11:03;16.00;99.90
33023;DHT22;19390;51.460;5.710;2023-03-01T13:13:30;17.00;99.90
33023;DHT22;19390;51.460;5.710;2023-03-01T13:15:56;14.30;99.90
33023;DHT22;19390;51.460;5.710;2023-03-01T13:20:49;14.40;99.90
33023;DHT22;19390;51.460;5.710;2023-03-01T13:26:08;14.30;99.90
33023;DHT22;19390;51.460;5.710;2023-03-01T13:31:06;14.60;99.90
33023;DHT22;19390;51.460;5.710;2023-03-01T13:36:00;14.20;99.90
33023;DHT22;19390;51.460;5.710;2023-03-01T13:38:45;13.80;99.90
33023;DHT22;19390;51.460;5.710;2023-03-01T13:41:16;14.20;99.90
33023;DHT22;19390;51.460;5.710;2023-03-01T13:43:44;14.30;99.90
33023;DHT22;19390;51.460;5.710;2023-03-01T13:46:20;14.10;99.90
33023;DHT22;19390;51.460;5.710;2023-03-01T13:48:50;12.90;99.90
33023;DHT22;19390;51.460;5.710;2023-03-01T13:51:21;13.90;99.90
33023;DHT22;19390;51.460;5.710;2023-03-01T13:53:48;13.70;99.90
33023;DHT22;19390;51.460;5.710;2023-03-01T13:56:37;15.20;99.90
33023;DHT22;19390;51.460;5.710;2023-03-01T14:01:39;13.10;99.90
33023;DHT22;19390;51.460;5.710;2023-03-01T14:04:28;14.00;99.90
33023;DHT22;19390;51.460;5.710;2023-03-01T14:07:11;12.90;99.90
33023;DHT22;19390;51.460;5.710;2023-03-01T14:09:43;13.40;99.90
33023;DHT22;19390;51.460;5.710;2023-03-01T14:15:06;12.80;99.90
33023;DHT22;19390;51.460;5.710;2023-03-01T14:20:26;12.50;99.90
33023;DHT22;19390;51.460;5.710;2023-03-01T14:22:54;13.50;99.90
33023;DHT22;19390;51.460;5.710;2023-03-01T14:25:32;13.50;99.90
33023;DHT22;19390;51.460;5.710;2023-03-01T14:28:25;12.90;99.90
33023;DHT22;19390;51.460;5.710;2023-03-01T14:30:52;12.20;99.90
33023;DHT22;19390;51.460;5.710;2023-03-01T14:33:26;11.80;99.90
33023;DHT22;19390;51.460;5.710;2023-03-01T14:35:58;10.80;99.90
33023;DHT22;19390;51.460;5.710;2023-03-01T14:38:39;11.00;99.90
33023;DHT22;19390;51.460;5.710;2023-03-01T14:43:49;12.20;99.90
33023;DHT22;19390;51.460;5.710;2023-03-01T14:46:36;12.00;99.90
33023;DHT22;19390;51.460;5.710;2023-03-01T14:49:16;11.90;99.90
33023;DHT22;19390;51.460;5.710;2023-03-01T14:51:46;12.70;99.90
33023;DHT22;19390;51.460;5.710;2023-03-01T14:56:52;11.00;99.90
33023;DHT22;19390;51.460;5.710;2023-03-01T14:59:22;11.10;99.90
33023;DHT22;19390;51.460;5.710;2023-03-01T15:01:49;11.90;99.90
33023;DHT22;19390;51.460;5.710;2023-03-01T15:04:16;12.20;99.90
33023;DHT22;19390;51.460;5.710;2023-03-01T15:06:43;12.20;99.90
33023;DHT22;19390;51.460;5.710;2023-03-01T15:09:14;11.80;99.90
33023;DHT22;19390;51.460;5.710;2023-03-01T15:11:42;10.40;99.90
33023;DHT22;19390;51.460;5.710;2023-03-01T15:16:53;9.90;99.90
33023;DHT22;19390;51.460;5.710;2023-03-01T15:19:19;9.80;99.90
33023;DHT22;19390;51.460;5.710;2023-03-01T15:21:48;8.90;99.90
33023;DHT22;19390;51.460;5.710;2023-03-01T15:24:21;9.50;99.90
33023;DHT22;19390;51.460;5.710;2023-03-01T15:26:54;9.80;99.90
33023;DHT22;19390;51.460;5.710;2023-03-01T15:29:24;10.50;99.90
33023;DHT22;19390;51.460;5.710;2023-03-01T15:32:20;11.10;99.90
33023;DHT22;19390;51.460;5.710;2023-03-01T15:34:48;10.40;99.90
33023;DHT22;19390;51.460;5.710;2023-03-01T15:38:22;10.00;99.90
33023;DHT22;19390;51.460;5.710;2023-03-01T15:40:30;9.70;99.90
33023;DHT22;19390;51.460;5.710;2023-03-01T15:42:59;8.80;99.90
33023;DHT22;19390;51.460;5.710;2023-03-01T15:45:27;9.30;99.90
33023;DHT22;19390;51.460;5.710;2023-03-01T15:47:57;9.10;99.90
33023;DHT22;19390;51.460;5.710;2023-03-01T15:50:31;9.40;99.90
33023;DHT22;19390;51.460;5.710;2023-03-01T15:53:05;9.20;99.90
33023;DHT22;19390;51.460;5.710;2023-03-01T15:55:32;8.70;99.90
33023;DHT22;19390;51.460;5.710;2023-03-01T15:58:14;8.70;99.90
33023;DHT22;19390;51.460;5.710;2023-03-01T16:00:41;8.30;99.90
33023;DHT22;19390;51.460;5.710;2023-03-01T16:03:10;8.00;99.90
33023;DHT22;19390;51.460;5.710;2023-03-01T16:05:37;8.50;99.90
33023;DHT22;19390;51.460;5.710;2023-03-01T16:08:04;7.90;99.90
33023;DHT22;19390;51.460;5.710;2023-03-01T16:10:34;7.90;99.90
33023;DHT22;19390;51.460;5.710;2023-03-01T16:13:01;7.60;99.90
33023;DHT22;19390;51.460;5.710;2023-03-01T16:15:32;7.60;99.90
33023;DHT22;19390;51.460;5.710;2023-03-01T16:18:00;7.40;99.90
33023;DHT22;19390;51.460;5.710;2023-03-01T16:20:27;7.30;99.90
33023;DHT22;19390;51.460;5.710;2023-03-01T16:22:53;7.10;99.90
33023;DHT22;19390;51.460;5.710;2023-03-01T16:25:20;6.80;99.90
33023;DHT22;19390;51.460;5.710;2023-03-01T16:27:48;6.50;99.90
33023;DHT22;19390;51.460;5.710;2023-03-01T16:30:16;6.40;99.90
33023;DHT22;19390;51.460;5.710;2023-03-01T16:32:43;6.20;99.90
33023;DHT22;19390;51.460;5.710;2023-03-01T16:35:10;6.30;99.90
33023;DHT22;19390;51.460;5.710;2023-03-01T16:37:37;6.20;99.90
33023;DHT22;19390;51.460;5.710;2023-03-01T16:40:05;6.10;99.90
33023;DHT22;19390;51.460;5.710;2023-03-01T16:42:35;6.00;99.90
33023;DHT22;19390;51.460;5.710;2023-03-01T16:45:00;5.80;99.90
33023;DHT22;19390;51.460;5.710;2023-03-01T16:47:27;5.80;99.90
33023;DHT22;19390;51.460;5.710;2023-03-01T16:49:54;5.70;99.90
33023;DHT22;19390;51.460;5.710;2023-03-01T16:52:21;5.60;99.90
33023;DHT22;19390;51.460;5.710;2023-03-01T16:54:47;5.50;99.90
33023;DHT22;19390;51.460;5.710;2023-03-01T16:57:13;5.50;99.90
33023;DHT22;19390;51.460;5.710;2023-03-01T16:59:39;5.40;99.90
33023;DHT22;19390;51.460;5.710;2023-03-01T17:02:06;5.20;99.90
33023;DHT22;19390;51.460;5.710;2023-03-01T17:04:33;5.10;99.90
33023;DHT22;19390;51.460;5.710;2023-03-01T17:06:59;5.00;99.90
33023;DHT22;19390;51.460;5.710;2023-03-01T17:09:24;5.00;99.90
33023;DHT22;19390;51.460;5.710;2023-03-01T17:11:50;4.90;99.90
33023;DHT22;19390;51.460;5.710;2023-03-01T17:14:16;4.90;99.90
33023;DHT22;19390;51.460;5.710;2023-03-01T17:16:43;4.70;99.90
33023;DHT22;19390;51.460;5.710;2023-03-01T17:19:10;4.60;99.90
33023;DHT22;19390;51.460;5.710;2023-03-01T17:21:36;4.50;99.90
33023;DHT22;19390;51.460;5.710;2023-03-01T17:24:04;4.40;99.90
33023;DHT22;19390;51.460;5.710;2023-03-01T17:26:30;4.30;99.90
33023;DHT22;19390;51.460;5.710;2023-03-01T17:28:56;4.30;99.90
33023;DHT22;19390;51.460;5.710;2023-03-01T17:31:24;4.30;99.90
33023;DHT22;19390;51.460;5.710;2023-03-01T17:33:49;4.20;99.90
33023;DHT22;19390;51.460;5.710;2023-03-01T17:36:16;4.10;99.90
33023;DHT22;19390;51.460;5.710;2023-03-01T17:38:42;4.00;99.90
33023;DHT22;19390;51.460;5.710;2023-03-01T17:41:08;3.80;99.90
33023;DHT22;19390;51.460;5.710;2023-03-01T17:43:36;3.90;99.90
33023;DHT22;19390;51.460;5.710;2023-03-01T17:46:02;3.80;99.90
33023;DHT22;19390;51.460;5.710;2023-03-01T17:48:28;3.70;99.90
33023;DHT22;19390;51.460;5.710;2023-03-01T17:50:54;3.60;99.90
33023;DHT22;19390;51.460;5.710;2023-03-01T17:53:20;3.50;99.90